createdAt,value
2022-10-24T00:01:22.440Z,87864.59
2022-10-24T00:03:50.765Z,87849.84
2022-10-24T00:06:20.071Z,87852.13
2022-10-24T00:08:48.549Z,87852.88
2022-10-24T00:11:25.649Z,87848.72
2022-10-24T00:13:55.447Z,87859.31
2022-10-24T00:16:22.599Z,87855.53
2022-10-24T00:18:50.256Z,87851.34
2022-10-24T00:21:17.613Z,87847.97
2022-10-24T00:23:45.584Z,87846.81
2022-10-24T00:26:14.278Z,87849.84
2022-10-24T00:28:41.946Z,87849.09
2022-10-24T00:31:15.142Z,87849.09
2022-10-24T00:33:44.082Z,87831.28
2022-10-24T00:36:19.504Z,87840.78
2022-10-24T00:38:47.094Z,87833.59
2022-10-24T00:41:29.850Z,87840.75
2022-10-24T00:44:26.466Z,87847.94
2022-10-24T00:47:01.859Z,87836.59
2022-10-24T00:50:04.245Z,87821.06
2022-10-24T00:52:41.299Z,87816.91
2022-10-24T00:55:11.787Z,87829.03
2022-10-24T00:57:56.564Z,87832.44
2022-10-24T01:00:31.846Z,87826.38
2022-10-24T01:03:00.714Z,87829.03
2022-10-24T01:05:48.981Z,87827.88
2022-10-24T01:08:45.485Z,87818.00
2022-10-24T01:11:40.232Z,87812.72
2022-10-24T01:14:44.363Z,87824.06
2022-10-24T01:17:29.750Z,87821.03
2022-10-24T01:20:16.263Z,87816.13
2022-10-24T01:23:27.261Z,87811.94
2022-10-24T01:26:14.652Z,87802.47
2022-10-24T01:29:05.314Z,87795.66
2022-10-24T01:31:49.583Z,87795.66
2022-10-24T01:34:47.029Z,87800.56
2022-10-24T01:37:22.432Z,87790.75
2022-10-24T01:40:06.746Z,87800.94
2022-10-24T01:42:38.422Z,87803.59
2022-10-24T01:45:09.275Z,87813.06
2022-10-24T01:47:46.653Z,87804.75
2022-10-24T01:50:19.829Z,87792.63
2022-10-24T01:52:48.375Z,87802.09
2022-10-24T01:55:15.629Z,87793.03
2022-10-24T01:57:42.836Z,87791.88
2022-10-24T02:00:23.464Z,87798.66
2022-10-24T02:03:01.972Z,87797.53
2022-10-24T02:05:42.421Z,87802.03
2022-10-24T02:08:18.085Z,87805.44
2022-10-24T02:10:55.685Z,87808.47
2022-10-24T02:13:50.131Z,87805.81
2022-10-24T02:16:20.646Z,87801.59
2022-10-24T02:18:55.029Z,87804.25
2022-10-24T02:21:31.869Z,87801.59
2022-10-24T02:24:22.112Z,87770.28
2022-10-24T02:27:06.342Z,87775.56
2022-10-24T02:30:07.698Z,87772.91
2022-10-24T02:32:44.449Z,87770.66
2022-10-24T02:35:15.912Z,87785.72
2022-10-24T02:37:51.449Z,87763.03
2022-10-24T02:40:22.512Z,87767.59
2022-10-24T02:42:55.342Z,87767.22
2022-10-24T02:45:24.119Z,87773.63
2022-10-24T02:47:58.185Z,87782.31
2022-10-24T02:50:27.200Z,87770.22
2022-10-24T02:52:54.396Z,87776.28
2022-10-24T02:55:21.722Z,87778.53
2022-10-24T02:57:48.928Z,87766.44
2022-10-24T03:00:16.340Z,87771.00
2022-10-24T03:02:43.710Z,87757.75
2022-10-24T03:05:11.102Z,87769.84
2022-10-24T03:07:38.276Z,87763.78
2022-10-24T03:10:06.065Z,87757.38
2022-10-24T03:12:33.260Z,87767.97
2022-10-24T03:15:00.361Z,87767.19
2022-10-24T03:17:27.564Z,87762.66
2022-10-24T03:19:54.776Z,87750.97
2022-10-24T03:22:22.107Z,87767.56
2022-10-24T03:24:55.986Z,87759.63
2022-10-24T03:27:23.704Z,87750.19
2022-10-24T03:29:50.839Z,87755.09
2022-10-24T03:32:18.043Z,87752.47
2022-10-24T03:34:45.358Z,87755.09
2022-10-24T03:37:12.656Z,87763.06
2022-10-24T03:39:39.814Z,87756.63
2022-10-24T03:42:06.955Z,87755.53
2022-10-24T03:44:34.078Z,87745.69
2022-10-24T03:47:01.425Z,87758.19
2022-10-24T03:49:28.959Z,87752.50
2022-10-24T03:51:56.129Z,87749.09
2022-10-24T03:54:23.230Z,87744.97
2022-10-24T03:56:50.452Z,87759.69
2022-10-24T03:59:17.888Z,87750.25
2022-10-24T04:01:45.277Z,87750.25
2022-10-24T04:04:12.547Z,87757.81
2022-10-24T04:06:39.915Z,87752.50
2022-10-24T04:09:07.640Z,87750.28
2022-10-24T04:11:34.908Z,87741.53
2022-10-24T04:16:30.315Z,87752.16
2022-10-24T04:18:57.468Z,87752.50
2022-10-24T04:21:24.644Z,87748.38
2022-10-24T04:23:51.908Z,87760.44
2022-10-24T04:26:19.114Z,87748.75
2022-10-24T04:28:46.611Z,87757.44
2022-10-24T04:31:16.956Z,87756.31
2022-10-24T04:33:47.064Z,87748.34
2022-10-24T04:36:14.328Z,87755.88
2022-10-24T04:38:41.540Z,87733.56
2022-10-24T04:41:11.945Z,87743.41
2022-10-24T04:43:40.455Z,87741.91
2022-10-24T04:46:08.428Z,87720.34
2022-10-24T04:48:36.188Z,87724.50
2022-10-24T04:51:03.862Z,87724.88
2022-10-24T04:53:31.038Z,87718.09
2022-10-24T04:55:58.287Z,87724.13
2022-10-24T04:58:25.460Z,87712.81
2022-10-24T05:00:52.765Z,87701.47
2022-10-24T05:03:21.179Z,87704.16
2022-10-24T05:05:49.013Z,87700.00
2022-10-24T05:08:17.797Z,87702.63
2022-10-24T05:10:45.228Z,87703.41
2022-10-24T05:13:12.580Z,87697.34
2022-10-24T05:15:39.950Z,87687.13
2022-10-24T05:18:07.412Z,87693.56
2022-10-24T05:20:34.788Z,87698.84
2022-10-24T05:23:02.033Z,87696.97
2022-10-24T05:25:29.483Z,87702.25
2022-10-24T05:27:56.660Z,87694.31
2022-10-24T05:30:24.109Z,87704.13
2022-10-24T05:32:51.648Z,87696.22
2022-10-24T05:35:19.491Z,87692.81
2022-10-24T05:37:46.668Z,87693.19
2022-10-24T05:40:14.523Z,87709.44
2022-10-24T05:42:42.178Z,87701.84
2022-10-24T05:45:11.027Z,87699.56
2022-10-24T05:47:38.287Z,87702.59
2022-10-24T05:50:06.955Z,87706.00
2022-10-24T05:52:34.486Z,87693.13
2022-10-24T05:55:07.325Z,87686.34
2022-10-24T05:57:36.876Z,87698.78
2022-10-24T06:00:13.929Z,87687.06
2022-10-24T06:02:42.240Z,87690.09
2022-10-24T06:05:11.016Z,87694.63
2022-10-24T06:07:39.632Z,87705.22
2022-10-24T06:10:08.248Z,87703.34
2022-10-24T06:12:35.964Z,87696.53
2022-10-24T06:15:06.388Z,87702.22
2022-10-24T06:17:34.043Z,87697.66
2022-10-24T06:20:01.271Z,87705.59
2022-10-24T06:22:28.570Z,87710.13
2022-10-24T06:24:56.590Z,87695.38
2022-10-24T06:27:24.264Z,87708.63
2022-10-24T06:29:51.410Z,87694.28
2022-10-24T06:32:18.883Z,87712.81
2022-10-24T06:34:46.184Z,87707.53
2022-10-24T06:37:13.362Z,87707.91
2022-10-24T06:39:40.871Z,87698.84
2022-10-24T06:42:08.229Z,87710.22
2022-10-24T06:44:35.588Z,87710.59
2022-10-24T06:47:03.224Z,87721.94
2022-10-24T06:49:30.330Z,87708.69
2022-10-24T06:51:58.698Z,87707.94
2022-10-24T06:54:29.296Z,87706.78
2022-10-24T06:56:57.821Z,87709.81
2022-10-24T06:59:25.205Z,87709.44
2022-10-24T07:01:52.650Z,87692.78
2022-10-24T07:04:19.930Z,87703.34
2022-10-24T07:06:47.089Z,87696.16
2022-10-24T07:09:15.492Z,87707.88
2022-10-24T07:11:44.513Z,87710.13
2022-10-24T07:14:12.296Z,87707.09
2022-10-24T07:16:40.188Z,87704.03
2022-10-24T07:19:08.122Z,87702.50
2022-10-24T07:21:35.943Z,87703.25
2022-10-24T07:24:04.439Z,87707.00
2022-10-24T07:26:32.306Z,87709.25
2022-10-24T07:31:33.221Z,87695.19
2022-10-24T07:34:03.226Z,87688.31
2022-10-24T07:36:30.510Z,87687.91
2022-10-24T07:38:59.823Z,87692.81
2022-10-24T07:41:30.218Z,87693.50
2022-10-24T07:44:00.150Z,87687.78
2022-10-24T07:46:27.297Z,87688.13
2022-10-24T07:48:54.911Z,87687.00
2022-10-24T07:51:22.860Z,87696.41
2022-10-24T07:53:50.445Z,87697.59
2022-10-24T07:56:18.356Z,87697.19
2022-10-24T07:58:47.369Z,87692.59
2022-10-24T08:01:15.982Z,87689.94
2022-10-24T08:03:43.754Z,87696.72
2022-10-24T08:06:25.612Z,87699.34
2022-10-24T08:08:52.912Z,87707.31
2022-10-24T08:11:24.916Z,87701.22
2022-10-24T08:13:55.294Z,87700.03
2022-10-24T08:16:23.739Z,87697.34
2022-10-24T08:18:53.655Z,87698.09
2022-10-24T08:21:23.226Z,87707.16
2022-10-24T08:23:53.757Z,87694.63
2022-10-24T08:26:25.575Z,87682.47
2022-10-24T08:28:52.966Z,87691.16
2022-10-24T08:31:23.587Z,87687.41
2022-10-24T08:33:55.510Z,87680.53
2022-10-24T08:36:31.969Z,87691.56
2022-10-24T08:39:00.404Z,87682.38
2022-10-24T08:41:37.290Z,87679.06
2022-10-24T08:44:19.342Z,87674.88
2022-10-24T08:46:58.498Z,87675.16
2022-10-24T08:49:39.454Z,87672.00
2022-10-24T08:52:35.439Z,87677.59
2022-10-24T08:55:37.303Z,87661.63
2022-10-24T08:58:30.097Z,87661.63
2022-10-24T09:01:03.081Z,87661.94
2022-10-24T09:03:58.753Z,87659.19
2022-10-24T09:06:29.837Z,87658.34
2022-10-24T09:09:12.358Z,87665.25
2022-10-24T09:11:56.123Z,87656.13
2022-10-24T09:14:30.377Z,87662.91
2022-10-24T09:17:29.818Z,87652.72
2022-10-24T09:20:21.363Z,87657.44
2022-10-24T09:22:49.126Z,87660.81
2022-10-24T09:25:29.383Z,87649.41
2022-10-24T09:28:01.223Z,87656.69
2022-10-24T09:30:33.030Z,87655.50
2022-10-24T09:33:24.087Z,87653.91
2022-10-24T09:35:55.805Z,87670.53
2022-10-24T09:38:36.783Z,87658.66
2022-10-24T09:41:26.478Z,87655.78
2022-10-24T09:44:00.643Z,87638.28
2022-10-24T09:46:36.510Z,87655.63
2022-10-24T09:49:14.442Z,87641.56
2022-10-24T09:51:58.629Z,87652.91
2022-10-24T09:54:32.953Z,87648.19
2022-10-24T09:57:07.268Z,87626.81
2022-10-24T09:59:59.171Z,87639.13
2022-10-24T10:02:29.671Z,87635.22
2022-10-24T10:05:02.848Z,87647.03
2022-10-24T10:07:39.846Z,87639.69
2022-10-24T10:10:36.059Z,87625.66
2022-10-24T10:13:22.384Z,87625.19
2022-10-24T10:15:59.778Z,87627.16
2022-10-24T10:18:38.094Z,87625.34
2022-10-24T10:21:22.834Z,87611.88
2022-10-24T10:23:55.259Z,87614.44
2022-10-24T10:26:29.572Z,87624.25
2022-10-24T10:29:05.709Z,87619.78
2022-10-24T10:31:47.648Z,87611.88
2022-10-24T10:34:21.896Z,87615.28
2022-10-24T10:36:51.996Z,87609.88
2022-10-24T10:39:55.406Z,87607.16
2022-10-24T10:42:52.018Z,87604.94
2022-10-24T10:45:51.293Z,87604.56
2022-10-24T10:48:32.344Z,87598.41
2022-10-24T10:51:11.967Z,87592.72
2022-10-24T10:54:11.844Z,87599.59
2022-10-24T10:57:03.957Z,87598.16
2022-10-24T11:00:03.646Z,87587.47
2022-10-24T11:03:07.175Z,87598.03
2022-10-24T11:05:55.680Z,87594.72
2022-10-24T11:08:34.566Z,87596.50
2022-10-24T11:11:16.388Z,87584.41
2022-10-24T11:14:03.894Z,87591.19
2022-10-24T11:16:32.271Z,87593.91
2022-10-24T11:19:21.340Z,87576.91
2022-10-24T11:21:50.137Z,87577.22
2022-10-24T11:24:25.195Z,87565.75
2022-10-24T11:27:25.273Z,87569.25
2022-10-24T11:30:14.308Z,87569.69
2022-10-24T11:32:59.880Z,87562.69
2022-10-24T11:35:33.889Z,87558.06
2022-10-24T11:38:24.515Z,87544.09
2022-10-24T11:41:01.129Z,87549.00
2022-10-24T11:43:40.700Z,87542.63
2022-10-24T11:46:19.013Z,87551.22
2022-10-24T11:48:59.908Z,87532.81
2022-10-24T11:52:21.844Z,87545.03
2022-10-24T11:55:01.937Z,87551.44
2022-10-24T11:57:32.243Z,87551.41
2022-10-24T12:00:00.172Z,87558.88
2022-10-24T12:03:16.507Z,87547.94
2022-10-24T12:06:06.745Z,87537.00
2022-10-24T12:09:21.070Z,87524.81
2022-10-24T12:12:05.924Z,87540.34
2022-10-24T12:15:48.811Z,87538.38
2022-10-24T12:18:40.868Z,87534.09
2022-10-24T12:21:16.509Z,87526.13
2022-10-24T12:24:00.475Z,87513.84
2022-10-24T12:26:35.955Z,87512.22
2022-10-24T12:29:20.873Z,87496.72
2022-10-24T12:31:49.259Z,87495.56
2022-10-24T12:34:20.665Z,87488.28
2022-10-24T12:37:30.416Z,87483.88
2022-10-24T12:39:58.735Z,87485.50
2022-10-24T12:42:26.031Z,87481.16
2022-10-24T12:45:02.381Z,87488.88
2022-10-24T12:47:37.583Z,87480.63
2022-10-24T12:50:23.220Z,87481.66
2022-10-24T12:53:39.194Z,87471.16
2022-10-24T12:56:12.905Z,87472.31
2022-10-24T12:58:44.295Z,87464.03
2022-10-24T13:01:26.018Z,87461.50
2022-10-24T13:04:19.581Z,87454.22
2022-10-24T13:07:30.028Z,87452.78
2022-10-24T13:10:12.837Z,87431.81
2022-10-24T13:12:45.823Z,87434.38
2022-10-24T13:16:11.907Z,87434.16
2022-10-24T13:19:03.161Z,87416.25
2022-10-24T13:21:45.679Z,87423.16
2022-10-24T13:24:17.090Z,87411.53
2022-10-24T13:26:56.536Z,87426.78
2022-10-24T13:29:27.321Z,87419.09
2022-10-24T13:32:18.527Z,87417.53
2022-10-24T13:34:50.586Z,87411.13
2022-10-24T13:38:00.546Z,87408.88
2022-10-24T13:40:32.739Z,87413.94
2022-10-24T13:43:26.802Z,87427.63
2022-10-24T13:46:04.361Z,87407.94
2022-10-24T13:48:35.266Z,87417.41
2022-10-24T13:51:09.312Z,87413.53
2022-10-24T13:53:51.502Z,87418.50
2022-10-24T13:56:19.985Z,87409.13
2022-10-24T13:58:50.494Z,87415.28
2022-10-24T14:01:29.146Z,87408.50
2022-10-24T14:04:00.785Z,87413.50
2022-10-24T14:06:32.558Z,87410.38
2022-10-24T14:09:07.565Z,87406.28
2022-10-24T14:11:45.797Z,87418.53
2022-10-24T14:14:27.524Z,87409.38
2022-10-24T14:17:23.850Z,87408.16
2022-10-24T14:20:19.327Z,87427.19
2022-10-24T14:22:47.445Z,87419.22
2022-10-24T14:25:35.906Z,87425.13
2022-10-24T14:28:17.197Z,87430.72
2022-10-24T14:30:57.307Z,87434.81
2022-10-24T14:33:41.494Z,87420.25
2022-10-24T14:36:09.442Z,87430.84
2022-10-24T14:38:37.395Z,87406.09
2022-10-24T14:41:09.722Z,87419.81
2022-10-24T14:43:43.034Z,87427.03
2022-10-24T14:46:12.941Z,87437.03
2022-10-24T14:48:44.665Z,87435.41
2022-10-24T14:51:23.823Z,87424.00
2022-10-24T14:53:51.983Z,87418.94
2022-10-24T14:56:34.716Z,87422.06
2022-10-24T14:59:19.519Z,87416.47
2022-10-24T15:02:05.611Z,87429.00
2022-10-24T15:04:40.904Z,87421.78
2022-10-24T15:07:37.353Z,87433.16
2022-10-24T15:10:12.883Z,87428.59
2022-10-24T15:13:10.525Z,87409.72
2022-10-24T15:16:00.516Z,87417.31
2022-10-24T15:18:43.099Z,87421.56
2022-10-24T15:21:19.467Z,87396.91
2022-10-24T15:23:50.142Z,87396.91
2022-10-24T15:26:41.171Z,87395.72
2022-10-24T15:29:14.062Z,87404.53
2022-10-24T15:31:45.748Z,87422.88
2022-10-24T15:34:19.859Z,87432.34
2022-10-24T15:36:50.621Z,87440.38
2022-10-24T15:39:24.721Z,87431.31
2022-10-24T15:41:53.206Z,87441.97
2022-10-24T15:44:29.965Z,87447.75
2022-10-24T15:46:57.547Z,87439.03
2022-10-24T15:49:24.854Z,87453.88
2022-10-24T15:51:52.407Z,87456.56
2022-10-24T15:54:22.845Z,87460.78
2022-10-24T15:56:50.754Z,87455.16
2022-10-24T15:59:18.148Z,87462.72
2022-10-24T16:01:52.838Z,87473.00
2022-10-24T16:04:21.124Z,87484.06
2022-10-24T16:06:50.088Z,87499.72
2022-10-24T16:09:24.613Z,87507.00
2022-10-24T16:11:52.009Z,87521.72
2022-10-24T16:14:21.634Z,87545.69
2022-10-24T16:16:49.502Z,87547.28
2022-10-24T16:19:17.013Z,87551.03
2022-10-24T16:21:44.310Z,87566.22
2022-10-24T16:24:13.007Z,87571.16
2022-10-24T16:26:41.230Z,87577.97
2022-10-24T16:29:08.557Z,87593.50
2022-10-24T16:31:37.289Z,87599.59
2022-10-24T16:34:04.669Z,87612.50
2022-10-24T16:36:31.876Z,87608.44
2022-10-24T16:38:59.071Z,87620.56
2022-10-24T16:41:27.435Z,87613.38
2022-10-24T16:43:57.310Z,87618.31
2022-10-24T16:46:28.400Z,87618.69
2022-10-24T16:48:56.441Z,87612.25
2022-10-24T16:51:27.880Z,87625.53
2022-10-24T16:53:55.134Z,87616.09
2022-10-24T16:56:22.834Z,87592.94
2022-10-24T16:58:50.117Z,87593.00
2022-10-24T17:01:17.452Z,87579.72
2022-10-24T17:03:45.265Z,87575.94
2022-10-24T17:06:13.629Z,87583.53
2022-10-24T17:08:40.925Z,87579.72
2022-10-24T17:11:25.759Z,87590.34
2022-10-24T17:13:55.868Z,87591.88
2022-10-24T17:16:23.068Z,87595.28
2022-10-24T17:19:05.186Z,87594.88
2022-10-24T17:21:37.379Z,87589.56
2022-10-24T17:24:05.089Z,87596.00
2022-10-24T17:26:32.434Z,87597.16
2022-10-24T17:28:59.753Z,87604.03
2022-10-24T17:31:27.012Z,87610.06
2022-10-24T17:33:55.622Z,87621.44
2022-10-24T17:36:35.282Z,87616.16
2022-10-24T17:39:20.874Z,87617.28
2022-10-24T17:41:48.403Z,87609.69
2022-10-24T17:44:18.460Z,87607.44
2022-10-24T17:46:46.015Z,87605.56
2022-10-24T17:49:16.454Z,87616.91
2022-10-24T17:51:46.705Z,87630.16
2022-10-24T17:54:17.459Z,87626.41
2022-10-24T17:56:44.736Z,87618.06
2022-10-24T17:59:11.880Z,87615.44
2022-10-24T18:01:39.343Z,87625.66
2022-10-24T18:04:21.912Z,87622.63
2022-10-24T18:06:49.206Z,87626.06
2022-10-24T18:09:16.331Z,87635.16
2022-10-24T18:11:46.770Z,87635.53
2022-10-24T18:14:20.819Z,87638.94
2022-10-24T18:16:50.806Z,87647.28
2022-10-24T18:19:18.097Z,87649.56
2022-10-24T18:21:45.582Z,87657.91
2022-10-24T18:24:13.386Z,87664.34
2022-10-24T18:26:40.657Z,87667.75
2022-10-24T18:29:07.868Z,87666.22
2022-10-24T18:31:35.281Z,87661.31
2022-10-24T18:34:04.891Z,87661.69
2022-10-24T18:36:38.472Z,87661.69
2022-10-24T18:39:05.966Z,87671.50
2022-10-24T18:41:48.633Z,87670.03
2022-10-24T18:44:30.471Z,87666.22
2022-10-24T18:47:05.384Z,87676.44
2022-10-24T18:49:34.946Z,87678.72
2022-10-24T18:52:10.842Z,87679.84
2022-10-24T18:55:02.060Z,87677.22
2022-10-24T18:57:33.073Z,87671.16
2022-10-24T19:00:00.913Z,87669.66
2022-10-24T19:03:15.030Z,87666.63
2022-10-24T19:05:57.357Z,87673.44
2022-10-24T19:08:27.090Z,87670.03
2022-10-24T19:10:56.140Z,87662.09
2022-10-24T19:13:27.172Z,87657.91
2022-10-24T19:16:02.372Z,87656.81
2022-10-24T19:18:33.884Z,87648.47
2022-10-24T19:21:01.998Z,87654.91
2022-10-24T19:23:29.154Z,87659.44
2022-10-24T19:25:56.372Z,87660.22
2022-10-24T19:28:23.593Z,87654.16
2022-10-24T19:30:50.769Z,87657.16
2022-10-24T19:33:18.099Z,87664.38
2022-10-24T19:35:45.909Z,87653.41
2022-10-24T19:38:17.957Z,87649.97
2022-10-24T19:40:53.130Z,87648.47
2022-10-24T19:43:22.313Z,87658.31
2022-10-24T19:46:07.070Z,87664.38
2022-10-24T19:48:36.180Z,87667.00
2022-10-24T19:51:10.775Z,87662.09
2022-10-24T19:53:41.393Z,87664.75
2022-10-24T19:56:12.620Z,87674.59
2022-10-24T19:58:41.977Z,87667.00
2022-10-24T20:01:12.077Z,87666.25
2022-10-24T20:03:42.356Z,87676.50
2022-10-24T20:06:09.984Z,87674.22
2022-10-24T20:08:38.120Z,87667.78
2022-10-24T20:11:06.811Z,87678.00
2022-10-24T20:13:35.131Z,87679.91
2022-10-24T20:16:06.263Z,87680.66
2022-10-24T20:18:36.289Z,87667.06
2022-10-24T20:21:09.963Z,87667.41
2022-10-24T20:23:38.077Z,87669.31
2022-10-24T20:26:16.683Z,87670.84
2022-10-24T20:28:47.972Z,87667.44
2022-10-24T20:31:31.575Z,87667.06
2022-10-24T20:34:05.263Z,87664.78
2022-10-24T20:36:39.492Z,87667.06
2022-10-24T20:39:08.719Z,87665.94
2022-10-24T20:41:37.360Z,87668.94
2022-10-24T20:44:05.841Z,87669.34
2022-10-24T20:46:33.339Z,87668.94
2022-10-24T20:49:00.633Z,87671.97
2022-10-24T20:51:28.307Z,87680.69
2022-10-24T20:53:55.531Z,87680.69
2022-10-24T20:56:24.986Z,87691.66
2022-10-24T20:58:54.209Z,87697.34
2022-10-24T21:01:25.483Z,87704.13
2022-10-24T21:03:54.046Z,87701.47
2022-10-24T21:06:28.118Z,87698.47
2022-10-24T21:08:59.088Z,87704.53
2022-10-24T21:11:28.982Z,87690.91
2022-10-24T21:14:05.909Z,87683.72
2022-10-24T21:16:34.020Z,87692.81
2022-10-24T21:19:02.283Z,87694.69
2022-10-24T21:21:29.827Z,87696.59
2022-10-24T21:24:04.484Z,87699.22
2022-10-24T21:26:35.770Z,87699.59
2022-10-24T21:29:09.340Z,87696.59
2022-10-24T21:31:51.597Z,87694.69
2022-10-24T21:34:19.630Z,87686.75
2022-10-24T21:36:47.187Z,87687.88
2022-10-24T21:39:16.885Z,87687.88
2022-10-24T21:41:45.129Z,87686.38
2022-10-24T21:44:12.619Z,87684.09
2022-10-24T21:46:40.149Z,87686.75
2022-10-24T21:49:07.427Z,87696.59
2022-10-24T21:51:37.172Z,87697.34
2022-10-24T21:54:14.846Z,87694.69
2022-10-24T21:56:42.429Z,87694.31
2022-10-24T21:59:19.163Z,87695.84
2022-10-24T22:01:48.261Z,87698.09
2022-10-24T22:04:17.204Z,87703.03
2022-10-24T22:06:45.393Z,87703.41
2022-10-24T22:09:18.104Z,87700.75
2022-10-24T22:11:46.157Z,87699.25
2022-10-24T22:14:17.965Z,87693.53
2022-10-24T22:16:45.808Z,87687.88
2022-10-24T22:19:13.898Z,87687.53
2022-10-24T22:21:45.154Z,87694.69
2022-10-24T22:24:24.148Z,87697.34
2022-10-24T22:26:52.918Z,87703.78
2022-10-24T22:29:23.978Z,87709.06
2022-10-24T22:31:53.199Z,87708.69
2022-10-24T22:34:24.301Z,87712.88
2022-10-24T22:37:05.027Z,87709.84
2022-10-24T22:39:32.824Z,87703.41
2022-10-24T22:42:00.345Z,87712.09
2022-10-24T22:44:27.992Z,87710.22
2022-10-24T22:47:50.604Z,87714.75
2022-10-24T22:50:47.686Z,87705.28
2022-10-24T22:53:19.919Z,87718.16
2022-10-24T22:55:55.893Z,87708.31
2022-10-24T22:58:23.485Z,87703.78
2022-10-24T23:01:04.925Z,87709.44
2022-10-24T23:03:41.383Z,87698.47
2022-10-24T23:06:22.993Z,87695.84
2022-10-24T23:08:50.244Z,87692.03
2022-10-24T23:11:18.157Z,87673.50
2022-10-24T23:13:45.765Z,87673.88
2022-10-24T23:16:56.406Z,87690.91
2022-10-24T23:19:27.703Z,87678.81
2022-10-24T23:22:08.455Z,87667.47
2022-10-24T23:24:36.125Z,87679.94
2022-10-24T23:27:12.242Z,87680.34
2022-10-24T23:29:45.760Z,87690.53
2022-10-24T23:32:37.382Z,87686.00
2022-10-24T23:35:05.556Z,87694.69
2022-10-24T23:37:37.100Z,87699.22
2022-10-24T23:40:34.035Z,87695.09
2022-10-24T23:43:02.832Z,87701.88
2022-10-24T23:45:38.032Z,87711.34
2022-10-24T23:48:55.334Z,87704.53
2022-10-24T23:51:35.280Z,87709.47
2022-10-24T23:54:02.834Z,87708.69
2022-10-24T23:56:30.635Z,87708.69
2022-10-24T23:58:57.806Z,87712.09
